sensor_id;sensor_type;location;lat;lon;timestamp;pressure;altitude;pressure_sealevel;temperature;humidity
9281;BME280;4679;47.966;7.958;2022-09-04T06:15:35;97377.53;;;15.28;83.39
9281;BME280;4679;47.966;7.958;2022-09-04T06:17:51;97370.59;;;15.37;83.08
9281;BME280;4679;47.966;7.958;2022-09-04T06:20:17;97377.53;;;15.33;82.81
9281;BME280;4679;47.966;7.958;2022-09-04T06:22:42;97381.81;;;15.44;83.28
9281;BME280;4679;47.966;7.958;2022-09-04T06:25:14;97371.44;;;15.58;82.74
9281;BME280;4679;47.966;7.958;2022-09-04T06:27:27;97368.19;;;15.66;82.32
9281;BME280;4679;47.966;7.958;2022-09-04T06:29:48;97369.78;;;15.77;82.20
9281;BME280;4679;47.966;7.958;2022-09-04T06:32:14;97368.44;;;15.85;82.87
9281;BME280;4679;47.966;7.958;2022-09-04T06:34:28;97378.31;;;15.90;82.25
9281;BME280;4679;47.966;7.958;2022-09-04T06:36:46;97380.72;;;15.96;82.05
9281;BME280;4679;47.966;7.958;2022-09-04T06:39:04;97387.66;;;16.07;81.72
9281;BME280;4679;47.966;7.958;2022-09-04T06:41:25;97387.63;;;16.17;81.97
9281;BME280;4679;47.966;7.958;2022-09-04T06:43:36;97386.00;;;16.27;81.96
9281;BME280;4679;47.966;7.958;2022-09-04T06:45:48;97392.91;;;16.38;81.89
9281;BME280;4679;47.966;7.958;2022-09-04T06:48:04;97392.88;;;16.48;81.58
9281;BME280;4679;47.966;7.958;2022-09-04T06:50:18;97390.16;;;16.58;81.60
9281;BME280;4679;47.966;7.958;2022-09-04T06:52:27;97390.41;;;16.67;81.22
9281;BME280;4679;47.966;7.958;2022-09-04T06:54:39;97398.13;;;16.78;81.61
9281;BME280;4679;47.966;7.958;2022-09-04T06:57:11;97393.50;;;16.89;80.78
9281;BME280;4679;47.966;7.958;2022-09-04T06:59:26;97396.38;;;16.98;80.68
9281;BME280;4679;47.966;7.958;2022-09-04T07:01:39;97398.50;;;17.06;81.15
9281;BME280;4679;47.966;7.958;2022-09-04T07:03:55;97389.31;;;17.12;80.62
9281;BME280;4679;47.966;7.958;2022-09-04T07:06:04;97400.53;;;17.24;80.77
9281;BME280;4679;47.966;7.958;2022-09-04T07:08:20;97394.28;;;17.34;80.86
9281;BME280;4679;47.966;7.958;2022-09-04T07:10:30;97396.81;;;17.54;79.99
9281;BME280;4679;47.966;7.958;2022-09-04T07:12:50;97392.44;;;17.68;80.06
9281;BME280;4679;47.966;7.958;2022-09-04T07:15:22;97393.94;;;17.79;79.87
9281;BME280;4679;47.966;7.958;2022-09-04T07:17:33;97395.69;;;17.89;79.70
9281;BME280;4679;47.966;7.958;2022-09-04T07:19:53;97398.31;;;17.99;79.61
9281;BME280;4679;47.966;7.958;2022-09-04T07:22:10;97408.91;;;18.14;79.53
9281;BME280;4679;47.966;7.958;2022-09-04T07:24:38;97403.63;;;18.28;79.01
9281;BME280;4679;47.966;7.958;2022-09-04T07:26:48;97411.56;;;18.38;78.75
9281;BME280;4679;47.966;7.958;2022-09-04T07:29:07;97417.56;;;18.54;78.68
9281;BME280;4679;47.966;7.958;2022-09-04T07:31:16;97416.56;;;18.74;78.42
9281;BME280;4679;47.966;7.958;2022-09-04T07:33:28;97412.28;;;18.91;78.01
9281;BME280;4679;47.966;7.958;2022-09-04T07:35:36;97420.00;;;18.98;77.66
9281;BME280;4679;47.966;7.958;2022-09-04T07:37:44;97410.53;;;19.01;77.59
9281;BME280;4679;47.966;7.958;2022-09-04T07:39:56;97417.47;;;19.07;77.29
9281;BME280;4679;47.966;7.958;2022-09-04T07:42:04;97420.56;;;19.14;77.46
9281;BME280;4679;47.966;7.958;2022-09-04T07:44:14;97419.25;;;19.30;77.24
9281;BME280;4679;47.966;7.958;2022-09-04T07:46:24;97425.97;;;19.51;76.47
9281;BME280;4679;47.966;7.958;2022-09-04T07:48:33;97422.03;;;19.62;76.53
9281;BME280;4679;47.966;7.958;2022-09-04T07:50:52;97426.66;;;19.76;76.17
9281;BME280;4679;47.966;7.958;2022-09-04T07:53:16;97430.91;;;19.95;75.84
9281;BME280;4679;47.966;7.958;2022-09-04T07:55:26;97424.44;;;20.10;75.75
9281;BME280;4679;47.966;7.958;2022-09-04T07:57:50;97433.03;;;20.26;75.23
9281;BME280;4679;47.966;7.958;2022-09-04T08:00:03;97426.16;;;20.33;75.02
9281;BME280;4679;47.966;7.958;2022-09-04T08:02:22;97432.78;;;20.41;75.05
9281;BME280;4679;47.966;7.958;2022-09-04T08:04:43;97430.00;;;20.46;74.93
9281;BME280;4679;47.966;7.958;2022-09-04T08:06:56;97432.28;;;20.53;74.90
9281;BME280;4679;47.966;7.958;2022-09-04T08:09:21;97436.78;;;20.71;74.34
9281;BME280;4679;47.966;7.958;2022-09-04T08:11:43;97436.97;;;20.88;73.91
9281;BME280;4679;47.966;7.958;2022-09-04T08:16:32;97445.72;;;21.08;73.56
9281;BME280;4679;47.966;7.958;2022-09-04T08:18:50;97439.84;;;21.19;73.30
9281;BME280;4679;47.966;7.958;2022-09-04T08:21:13;97440.50;;;21.25;73.46
9281;BME280;4679;47.966;7.958;2022-09-04T08:23:28;97446.84;;;21.20;72.75
9281;BME280;4679;47.966;7.958;2022-09-04T08:25:49;97444.09;;;21.34;72.75
9281;BME280;4679;47.966;7.958;2022-09-04T08:30:21;97443.69;;;21.63;72.10
9281;BME280;4679;47.966;7.958;2022-09-04T08:32:46;97442.69;;;21.59;71.88
9281;BME280;4679;47.966;7.958;2022-09-04T08:35:02;97450.69;;;21.64;71.94
9281;BME280;4679;47.966;7.958;2022-09-04T08:37:16;97449.13;;;21.71;71.56
9281;BME280;4679;47.966;7.958;2022-09-04T08:39:31;97445.41;;;21.81;71.43
9281;BME280;4679;47.966;7.958;2022-09-04T08:47:24;97455.47;;;22.12;70.22
9281;BME280;4679;47.966;7.958;2022-09-04T08:52:28;97460.28;;;22.45;69.64
9281;BME280;4679;47.966;7.958;2022-09-04T08:55:03;97461.56;;;22.57;69.00
9281;BME280;4679;47.966;7.958;2022-09-04T08:57:28;97462.06;;;22.59;69.00
9281;BME280;4679;47.966;7.958;2022-09-04T09:00:06;97462.56;;;22.61;68.63
9281;BME280;4679;47.966;7.958;2022-09-04T09:05:06;97462.19;;;22.85;67.99
9281;BME280;4679;47.966;7.958;2022-09-04T09:07:30;97460.44;;;22.89;67.85
9281;BME280;4679;47.966;7.958;2022-09-04T09:10:04;97460.94;;;22.99;67.56
9281;BME280;4679;47.966;7.958;2022-09-04T09:12:36;97459.25;;;23.21;66.86
9281;BME280;4679;47.966;7.958;2022-09-04T09:17:35;97463.09;;;23.54;66.06
9281;BME280;4679;47.966;7.958;2022-09-04T09:19:45;97465.13;;;23.40;66.10
9281;BME280;4679;47.966;7.958;2022-09-04T09:22:07;97464.66;;;23.29;66.08
9281;BME280;4679;47.966;7.958;2022-09-04T09:24:38;97468.78;;;23.27;65.96
9281;BME280;4679;47.966;7.958;2022-09-04T09:26:54;97466.25;;;23.30;65.79
9281;BME280;4679;47.966;7.958;2022-09-04T09:29:21;97472.31;;;23.36;65.48
9281;BME280;4679;47.966;7.958;2022-09-04T09:37:17;97466.38;;;23.25;65.24
9281;BME280;4679;47.966;7.958;2022-09-04T09:39:36;97469.91;;;23.43;64.76
9281;BME280;4679;47.966;7.958;2022-09-04T09:42:02;97461.78;;;23.43;64.33
9281;BME280;4679;47.966;7.958;2022-09-04T09:44:21;97456.69;;;23.41;64.45
9281;BME280;4679;47.966;7.958;2022-09-04T10:00:09;97449.22;;;24.45;61.10
9281;BME280;4679;47.966;7.958;2022-09-04T10:02:30;97463.69;;;24.67;60.71
9281;BME280;4679;47.966;7.958;2022-09-04T10:04:56;97449.06;;;24.88;60.36
9281;BME280;4679;47.966;7.958;2022-09-04T10:07:30;97451.16;;;24.83;59.86
9281;BME280;4679;47.966;7.958;2022-09-04T10:10:07;97449.97;;;24.93;59.32
9281;BME280;4679;47.966;7.958;2022-09-04T10:12:52;97450.50;;;25.15;59.09
9281;BME280;4679;47.966;7.958;2022-09-04T10:18:24;97455.34;;;25.51;57.45
9281;BME280;4679;47.966;7.958;2022-09-04T10:20:35;97449.84;;;25.60;57.60
9281;BME280;4679;47.966;7.958;2022-09-04T10:23:04;97451.97;;;25.54;57.36
9281;BME280;4679;47.966;7.958;2022-09-04T10:25:38;97457.81;;;25.44;57.57
9281;BME280;4679;47.966;7.958;2022-09-04T10:28:00;97447.25;;;25.22;57.61
9281;BME280;4679;47.966;7.958;2022-09-04T10:30:07;97454.56;;;25.30;57.27
9281;BME280;4679;47.966;7.958;2022-09-04T10:32:51;97454.97;;;25.20;56.65
9281;BME280;4679;47.966;7.958;2022-09-04T10:35:21;97454.81;;;25.58;56.48
9281;BME280;4679;47.966;7.958;2022-09-04T10:37:36;97449.41;;;25.79;55.55
9281;BME280;4679;47.966;7.958;2022-09-04T10:39:55;97443.53;;;25.89;54.87
9281;BME280;4679;47.966;7.958;2022-09-04T10:42:34;97446.25;;;25.89;54.42
9281;BME280;4679;47.966;7.958;2022-09-04T10:44:54;97440.94;;;25.92;54.28
9281;BME280;4679;47.966;7.958;2022-09-04T10:47:13;97444.34;;;26.02;54.58
9281;BME280;4679;47.966;7.958;2022-09-04T10:49:31;97437.88;;;26.27;53.19
9281;BME280;4679;47.966;7.958;2022-09-04T10:52:00;97435.94;;;26.27;53.19
9281;BME280;4679;47.966;7.958;2022-09-04T10:54:41;97436.81;;;26.19;52.97
9281;BME280;4679;47.966;7.958;2022-09-04T10:56:56;97422.84;;;25.97;53.15
9281;BME280;4679;47.966;7.958;2022-09-04T10:59:23;97434.56;;;26.21;52.62
9281;BME280;4679;47.966;7.958;2022-09-04T11:07:05;97437.13;;;26.63;51.19
9281;BME280;4679;47.966;7.958;2022-09-04T11:09:21;97432.59;;;26.79;51.35
9281;BME280;4679;47.966;7.958;2022-09-04T11:11:38;97438.34;;;26.90;50.58
9281;BME280;4679;47.966;7.958;2022-09-04T11:16:25;97434.50;;;26.91;50.90
9281;BME280;4679;47.966;7.958;2022-09-04T11:18:58;97437.03;;;26.96;50.71
9281;BME280;4679;47.966;7.958;2022-09-04T11:29:27;97433.06;;;26.57;50.06
9281;BME280;4679;47.966;7.958;2022-09-04T11:31:49;97430.00;;;26.95;49.37
9281;BME280;4679;47.966;7.958;2022-09-04T11:34:28;97429.25;;;27.22;48.30
9281;BME280;4679;47.966;7.958;2022-09-04T11:36:54;97432.28;;;27.45;48.16
9281;BME280;4679;47.966;7.958;2022-09-04T11:44:27;97438.50;;;27.18;48.45
9281;BME280;4679;47.966;7.958;2022-09-04T11:49:26;97438.38;;;27.54;47.26
9281;BME280;4679;47.966;7.958;2022-09-04T11:52:01;97433.13;;;27.34;47.46
9281;BME280;4679;47.966;7.958;2022-09-04T11:54:35;97432.00;;;27.10;47.25
9281;BME280;4679;47.966;7.958;2022-09-04T11:56:55;97441.28;;;27.34;47.16
9281;BME280;4679;47.966;7.958;2022-09-04T11:59:13;97421.56;;;27.12;47.04
9281;BME280;4679;47.966;7.958;2022-09-04T12:01:41;97428.13;;;27.23;46.53
9281;BME280;4679;47.966;7.958;2022-09-04T12:04:23;97423.72;;;27.07;46.72
9281;BME280;4679;47.966;7.958;2022-09-04T12:06:44;97431.59;;;27.36;45.98
9281;BME280;4679;47.966;7.958;2022-09-04T12:09:21;97435.56;;;27.63;45.77
9281;BME280;4679;47.966;7.958;2022-09-04T12:11:45;97440.72;;;27.80;45.50
9281;BME280;4679;47.966;7.958;2022-09-04T12:14:07;97440.13;;;27.47;46.01
9281;BME280;4679;47.966;7.958;2022-09-04T12:16:33;97431.03;;;27.43;45.81
9281;BME280;4679;47.966;7.958;2022-09-04T12:19:09;97436.25;;;27.48;45.05
9281;BME280;4679;47.966;7.958;2022-09-04T12:21:45;97442.50;;;27.36;45.77
9281;BME280;4679;47.966;7.958;2022-09-04T12:24:10;97435.84;;;27.74;44.72
9281;BME280;4679;47.966;7.958;2022-09-04T12:26:39;97442.88;;;28.02;44.39
9281;BME280;4679;47.966;7.958;2022-09-04T12:29:12;97446.19;;;28.24;44.26
9281;BME280;4679;47.966;7.958;2022-09-04T12:31:37;97444.28;;;28.40;43.72
9281;BME280;4679;47.966;7.958;2022-09-04T12:41:33;97440.31;;;28.53;43.03
9281;BME280;4679;47.966;7.958;2022-09-04T12:43:51;97435.63;;;28.38;42.99
9281;BME280;4679;47.966;7.958;2022-09-04T12:46:04;97435.88;;;28.33;42.90
9281;BME280;4679;47.966;7.958;2022-09-04T12:48:18;97439.16;;;28.54;42.93
9281;BME280;4679;47.966;7.958;2022-09-04T12:50:31;97441.63;;;28.91;42.32
9281;BME280;4679;47.966;7.958;2022-09-04T12:52:50;97435.31;;;29.06;41.82
9281;BME280;4679;47.966;7.958;2022-09-04T12:55:03;97435.84;;;29.12;41.84
9281;BME280;4679;47.966;7.958;2022-09-04T12:57:19;97432.59;;;29.06;41.76
9281;BME280;4679;47.966;7.958;2022-09-04T12:59:46;97427.22;;;29.10;41.59
9281;BME280;4679;47.966;7.958;2022-09-04T13:01:56;97435.06;;;29.11;41.71
9281;BME280;4679;47.966;7.958;2022-09-04T13:04:10;97434.19;;;29.07;41.45
9281;BME280;4679;47.966;7.958;2022-09-04T13:06:22;97435.16;;;29.34;41.06
9281;BME280;4679;47.966;7.958;2022-09-04T13:08:40;97422.59;;;29.49;40.63
9281;BME280;4679;47.966;7.958;2022-09-04T13:10:53;97428.09;;;29.14;40.97
9281;BME280;4679;47.966;7.958;2022-09-04T13:13:08;97431.94;;;29.28;40.92
9281;BME280;4679;47.966;7.958;2022-09-04T13:15:24;97426.03;;;29.26;40.76
9281;BME280;4679;47.966;7.958;2022-09-04T13:17:32;97425.94;;;29.23;40.69
9281;BME280;4679;47.966;7.958;2022-09-04T13:19:49;97425.38;;;29.33;40.37
9281;BME280;4679;47.966;7.958;2022-09-04T13:22:08;97427.44;;;29.20;40.42
9281;BME280;4679;47.966;7.958;2022-09-04T13:24:22;97422.41;;;29.22;40.42
9281;BME280;4679;47.966;7.958;2022-09-04T13:26:46;97423.91;;;29.00;40.37
9281;BME280;4679;47.966;7.958;2022-09-04T13:28:58;97422.84;;;29.24;40.04
9281;BME280;4679;47.966;7.958;2022-09-04T13:31:23;97425.59;;;29.24;39.93
9281;BME280;4679;47.966;7.958;2022-09-04T13:33:35;97434.38;;;28.98;40.07
9281;BME280;4679;47.966;7.958;2022-09-04T13:36:01;97425.91;;;29.38;39.50
9281;BME280;4679;47.966;7.958;2022-09-04T13:38:19;97420.81;;;29.76;39.24
9281;BME280;4679;47.966;7.958;2022-09-04T13:40:36;97419.13;;;29.90;38.55
9281;BME280;4679;47.966;7.958;2022-09-04T13:43:03;97413.44;;;29.99;38.53
9281;BME280;4679;47.966;7.958;2022-09-04T13:45:10;97421.34;;;30.23;38.06
9281;BME280;4679;47.966;7.958;2022-09-04T13:47:15;97418.84;;;30.37;38.32
9281;BME280;4679;47.966;7.958;2022-09-04T13:49:25;97410.06;;;30.05;38.23
9281;BME280;4679;47.966;7.958;2022-09-04T13:51:33;97412.91;;;30.13;38.44
9281;BME280;4679;47.966;7.958;2022-09-04T13:53:50;97412.88;;;30.09;38.07
9281;BME280;4679;47.966;7.958;2022-09-04T13:55:59;97416.09;;;30.15;37.99
9281;BME280;4679;47.966;7.958;2022-09-04T13:58:08;97417.19;;;30.33;37.66
9281;BME280;4679;47.966;7.958;2022-09-04T14:00:13;97410.28;;;30.39;38.20
9281;BME280;4679;47.966;7.958;2022-09-04T14:02:19;97414.41;;;30.52;37.60
9281;BME280;4679;47.966;7.958;2022-09-04T14:04:28;97415.34;;;30.40;37.22
9281;BME280;4679;47.966;7.958;2022-09-04T14:06:35;97423.53;;;30.37;37.85
9281;BME280;4679;47.966;7.958;2022-09-04T14:08:37;97411.88;;;30.43;37.83
9281;BME280;4679;47.966;7.958;2022-09-04T14:10:54;97416.09;;;30.37;37.80
9281;BME280;4679;47.966;7.958;2022-09-04T14:13:10;97414.09;;;30.34;37.59
9281;BME280;4679;47.966;7.958;2022-09-04T14:15:32;97410.94;;;30.32;36.97
9281;BME280;4679;47.966;7.958;2022-09-04T14:17:43;97419.91;;;30.10;37.65
9281;BME280;4679;47.966;7.958;2022-09-04T14:19:53;97414.06;;;30.12;37.57
9281;BME280;4679;47.966;7.958;2022-09-04T14:22:09;97415.28;;;30.14;37.45
9281;BME280;4679;47.966;7.958;2022-09-04T14:24:20;97418.13;;;29.98;37.08
9281;BME280;4679;47.966;7.958;2022-09-04T14:26:33;97411.06;;;29.97;37.27
9281;BME280;4679;47.966;7.958;2022-09-04T14:28:46;97413.03;;;29.97;37.75
9281;BME280;4679;47.966;7.958;2022-09-04T14:30:59;97413.06;;;30.20;36.84
9281;BME280;4679;47.966;7.958;2022-09-04T14:33:14;97415.97;;;29.69;37.11
9281;BME280;4679;47.966;7.958;2022-09-04T14:35:26;97421.59;;;29.76;37.05
9281;BME280;4679;47.966;7.958;2022-09-04T14:37:49;97414.41;;;30.06;36.76
9281;BME280;4679;47.966;7.958;2022-09-04T14:39:57;97408.47;;;30.27;36.21
9281;BME280;4679;47.966;7.958;2022-09-04T14:42:13;97406.31;;;29.94;36.61
9281;BME280;4679;47.966;7.958;2022-09-04T14:44:26;97409.50;;;29.58;37.47
9281;BME280;4679;47.966;7.958;2022-09-04T14:46:38;97408.06;;;29.64;37.44
9281;BME280;4679;47.966;7.958;2022-09-04T14:48:45;97405.94;;;29.96;36.73
9281;BME280;4679;47.966;7.958;2022-09-04T14:50:51;97406.84;;;30.23;36.64
9281;BME280;4679;47.966;7.958;2022-09-04T14:52:57;97404.66;;;30.32;36.08
9281;BME280;4679;47.966;7.958;2022-09-04T14:55:01;97404.56;;;30.25;36.11
9281;BME280;4679;47.966;7.958;2022-09-04T14:57:10;97402.22;;;30.27;35.96
9281;BME280;4679;47.966;7.958;2022-09-04T14:59:19;97401.75;;;30.21;36.37
9281;BME280;4679;47.966;7.958;2022-09-04T15:01:24;97399.13;;;30.28;36.49
9281;BME280;4679;47.966;7.958;2022-09-04T15:03:29;97402.16;;;30.46;36.16
9281;BME280;4679;47.966;7.958;2022-09-04T15:05:42;97400.63;;;30.71;36.04
9281;BME280;4679;47.966;7.958;2022-09-04T15:07:52;97403.00;;;30.50;35.72
9281;BME280;4679;47.966;7.958;2022-09-04T15:10:06;97401.00;;;30.01;36.10
9281;BME280;4679;47.966;7.958;2022-09-04T15:12:15;97393.13;;;29.81;36.59
9281;BME280;4679;47.966;7.958;2022-09-04T15:14:21;97389.41;;;29.69;36.82
9281;BME280;4679;47.966;7.958;2022-09-04T15:16:41;97395.78;;;29.96;36.15
9281;BME280;4679;47.966;7.958;2022-09-04T15:18:53;97392.25;;;30.15;35.58
9281;BME280;4679;47.966;7.958;2022-09-04T15:20:59;97394.16;;;29.92;36.24
9281;BME280;4679;47.966;7.958;2022-09-04T15:23:06;97389.56;;;29.77;36.14
9281;BME280;4679;47.966;7.958;2022-09-04T15:25:31;97392.66;;;29.56;36.34
9281;BME280;4679;47.966;7.958;2022-09-04T15:27:41;97403.75;;;29.63;36.28
9281;BME280;4679;47.966;7.958;2022-09-04T15:29:59;97392.06;;;29.85;35.95
9281;BME280;4679;47.966;7.958;2022-09-04T15:32:05;97393.75;;;30.13;35.61
9281;BME280;4679;47.966;7.958;2022-09-04T15:34:11;97392.72;;;30.43;35.29
9281;BME280;4679;47.966;7.958;2022-09-04T15:36:22;97394.78;;;30.50;34.70
9281;BME280;4679;47.966;7.958;2022-09-04T15:38:24;97387.13;;;30.59;34.41
9281;BME280;4679;47.966;7.958;2022-09-04T15:40:31;97390.22;;;30.58;35.30
9281;BME280;4679;47.966;7.958;2022-09-04T15:42:41;97377.09;;;30.21;35.50
9281;BME280;4679;47.966;7.958;2022-09-04T15:44:46;97389.91;;;29.94;35.67
9281;BME280;4679;47.966;7.958;2022-09-04T15:46:57;97388.91;;;30.02;35.40
9281;BME280;4679;47.966;7.958;2022-09-04T15:49:14;97388.81;;;29.99;35.37
9281;BME280;4679;47.966;7.958;2022-09-04T15:51:24;97387.47;;;30.12;35.18
9281;BME280;4679;47.966;7.958;2022-09-04T15:53:31;97389.31;;;30.04;35.64
9281;BME280;4679;47.966;7.958;2022-09-04T15:55:37;97389.63;;;29.99;35.29
9281;BME280;4679;47.966;7.958;2022-09-04T15:57:50;97388.03;;;29.98;35.50
9281;BME280;4679;47.966;7.958;2022-09-04T16:00:01;97386.56;;;30.50;34.48
9281;BME280;4679;47.966;7.958;2022-09-04T16:02:08;97384.22;;;30.03;35.04
9281;BME280;4679;47.966;7.958;2022-09-04T16:04:18;97383.06;;;30.04;34.72
9281;BME280;4679;47.966;7.958;2022-09-04T16:06:26;97382.19;;;30.00;35.00
9281;BME280;4679;47.966;7.958;2022-09-04T16:08:35;97381.59;;;30.33;34.90
9281;BME280;4679;47.966;7.958;2022-09-04T16:10:49;97376.38;;;30.24;35.05
9281;BME280;4679;47.966;7.958;2022-09-04T16:12:58;97382.75;;;30.32;34.88
9281;BME280;4679;47.966;7.958;2022-09-04T16:15:04;97370.09;;;30.24;34.37
9281;BME280;4679;47.966;7.958;2022-09-04T16:17:11;97373.56;;;29.98;35.08
9281;BME280;4679;47.966;7.958;2022-09-04T16:19:23;97378.22;;;29.97;34.92
9281;BME280;4679;47.966;7.958;2022-09-04T16:21:37;97377.69;;;29.69;35.34
9281;BME280;4679;47.966;7.958;2022-09-04T16:23:42;97371.13;;;29.73;35.67
9281;BME280;4679;47.966;7.958;2022-09-04T16:25:47;97369.03;;;29.67;35.79
9281;BME280;4679;47.966;7.958;2022-09-04T16:27:52;97371.47;;;29.14;36.20
9281;BME280;4679;47.966;7.958;2022-09-04T16:29:58;97376.44;;;29.09;36.41
9281;BME280;4679;47.966;7.958;2022-09-04T16:32:04;97383.63;;;28.97;36.61
9281;BME280;4679;47.966;7.958;2022-09-04T16:34:20;97376.75;;;28.88;36.79
9281;BME280;4679;47.966;7.958;2022-09-04T16:36:25;97381.06;;;28.73;36.83
9281;BME280;4679;47.966;7.958;2022-09-04T16:38:31;97378.19;;;28.50;37.21
9281;BME280;4679;47.966;7.958;2022-09-04T16:40:46;97372.31;;;28.32;37.19
9281;BME280;4679;47.966;7.958;2022-09-04T16:43:00;97373.06;;;28.01;37.54
9281;BME280;4679;47.966;7.958;2022-09-04T16:45:08;97372.13;;;27.66;37.71
9281;BME280;4679;47.966;7.958;2022-09-04T16:47:17;97378.34;;;27.66;38.14
9281;BME280;4679;47.966;7.958;2022-09-04T16:49:27;97371.69;;;27.64;37.59
9281;BME280;4679;47.966;7.958;2022-09-04T16:51:33;97366.84;;;27.45;38.09
9281;BME280;4679;47.966;7.958;2022-09-04T16:53:38;97378.38;;;27.26;37.93
9281;BME280;4679;47.966;7.958;2022-09-04T16:55:48;97371.59;;;27.20;38.80
9281;BME280;4679;47.966;7.958;2022-09-04T16:58:04;97376.84;;;27.13;38.11
9281;BME280;4679;47.966;7.958;2022-09-04T17:00:10;97377.41;;;27.07;38.87
9281;BME280;4679;47.966;7.958;2022-09-04T17:02:17;97366.31;;;27.00;38.40
9281;BME280;4679;47.966;7.958;2022-09-04T17:04:27;97374.38;;;26.59;39.13
9281;BME280;4679;47.966;7.958;2022-09-04T17:06:33;97374.59;;;26.30;39.84
9281;BME280;4679;47.966;7.958;2022-09-04T17:08:45;97372.50;;;26.03;40.08
9281;BME280;4679;47.966;7.958;2022-09-04T17:10:53;97373.72;;;25.81;40.72
9281;BME280;4679;47.966;7.958;2022-09-04T17:13:00;97372.53;;;25.70;40.82
9281;BME280;4679;47.966;7.958;2022-09-04T17:15:14;97373.13;;;25.54;41.46
9281;BME280;4679;47.966;7.958;2022-09-04T17:17:19;97370.66;;;25.29;41.66
9281;BME280;4679;47.966;7.958;2022-09-04T17:19:22;97378.69;;;25.04;42.29
9281;BME280;4679;47.966;7.958;2022-09-04T17:21:28;97386.66;;;24.80;42.98
9281;BME280;4679;47.966;7.958;2022-09-04T17:23:52;97384.03;;;24.63;43.30
9281;BME280;4679;47.966;7.958;2022-09-04T17:26:06;97380.75;;;24.48;43.51
9281;BME280;4679;47.966;7.958;2022-09-04T17:28:23;97385.13;;;24.32;43.68
9281;BME280;4679;47.966;7.958;2022-09-04T17:30:32;97387.09;;;24.14;44.22
9281;BME280;4679;47.966;7.958;2022-09-04T17:32:41;97386.50;;;24.00;44.60
9281;BME280;4679;47.966;7.958;2022-09-04T17:34:53;97381.47;;;23.81;44.94
9281;BME280;4679;47.966;7.958;2022-09-04T17:36:58;97382.75;;;23.75;45.19
9281;BME280;4679;47.966;7.958;2022-09-04T17:39:09;97384.84;;;23.61;45.47
9281;BME280;4679;47.966;7.958;2022-09-04T17:41:20;97376.88;;;23.47;45.81
9281;BME280;4679;47.966;7.958;2022-09-04T17:43:36;97384.03;;;23.43;46.17
9281;BME280;4679;47.966;7.958;2022-09-04T17:45:46;97389.59;;;23.38;46.23
9281;BME280;4679;47.966;7.958;2022-09-04T17:47:59;97389.44;;;23.26;46.92
9281;BME280;4679;47.966;7.958;2022-09-04T17:50:08;97389.13;;;23.28;46.71
9281;BME280;4679;47.966;7.958;2022-09-04T17:52:20;97390.41;;;23.30;46.84
9281;BME280;4679;47.966;7.958;2022-09-04T17:54:25;97391.19;;;23.22;47.02
9281;BME280;4679;47.966;7.958;2022-09-04T17:56:34;97389.75;;;23.07;47.46
9281;BME280;4679;47.966;7.958;2022-09-04T17:58:42;97393.59;;;22.98;47.56
9281;BME280;4679;47.966;7.958;2022-09-04T18:00:54;97396.44;;;22.93;47.80
9281;BME280;4679;47.966;7.958;2022-09-04T18:03:02;97398.34;;;22.92;48.08
9281;BME280;4679;47.966;7.958;2022-09-04T18:05:17;97404.69;;;22.79;48.38
9281;BME280;4679;47.966;7.958;2022-09-04T18:07:26;97403.22;;;22.73;48.57
9281;BME280;4679;47.966;7.958;2022-09-04T18:09:34;97413.88;;;22.61;48.95
9281;BME280;4679;47.966;7.958;2022-09-04T18:11:45;97412.09;;;22.56;49.24
9281;BME280;4679;47.966;7.958;2022-09-04T18:13:53;97414.91;;;22.42;49.45
9281;BME280;4679;47.966;7.958;2022-09-04T18:16:13;97418.06;;;22.36;49.69
9281;BME280;4679;47.966;7.958;2022-09-04T18:18:25;97421.16;;;22.21;50.00
9281;BME280;4679;47.966;7.958;2022-09-04T18:20:30;97423.22;;;22.15;50.23
9281;BME280;4679;47.966;7.958;2022-09-04T18:22:58;97419.97;;;22.04;50.55
9281;BME280;4679;47.966;7.958;2022-09-04T18:25:04;97430.09;;;21.99;50.64
9281;BME280;4679;47.966;7.958;2022-09-04T18:27:15;97427.03;;;21.92;50.80
9281;BME280;4679;47.966;7.958;2022-09-04T18:29:32;97427.16;;;21.87;51.26
9281;BME280;4679;47.966;7.958;2022-09-04T18:31:40;97423.19;;;21.84;51.46
9281;BME280;4679;47.966;7.958;2022-09-04T18:33:50;97423.66;;;21.86;51.13
9281;BME280;4679;47.966;7.958;2022-09-04T18:35:58;97432.56;;;21.87;51.36
9281;BME280;4679;47.966;7.958;2022-09-04T18:38:09;97438.81;;;21.96;51.16
9281;BME280;4679;47.966;7.958;2022-09-04T18:40:18;97444.72;;;21.98;51.18
9281;BME280;4679;47.966;7.958;2022-09-04T18:42:29;97442.81;;;21.98;51.39
9281;BME280;4679;47.966;7.958;2022-09-04T18:44:38;97439.19;;;21.81;51.75
9281;BME280;4679;47.966;7.958;2022-09-04T18:46:41;97446.56;;;21.66;52.20
9281;BME280;4679;47.966;7.958;2022-09-04T18:48:43;97441.28;;;21.61;52.27
9281;BME280;4679;47.966;7.958;2022-09-04T18:50:51;97445.59;;;21.62;52.51
9281;BME280;4679;47.966;7.958;2022-09-04T18:53:02;97453.09;;;21.65;52.29
9281;BME280;4679;47.966;7.958;2022-09-04T18:55:10;97453.19;;;21.60;52.14
9281;BME280;4679;47.966;7.958;2022-09-04T18:57:24;97457.00;;;21.59;52.25
9281;BME280;4679;47.966;7.958;2022-09-04T18:59:31;97457.47;;;21.39;53.01
9281;BME280;4679;47.966;7.958;2022-09-04T19:01:41;97455.78;;;21.29;53.53
9281;BME280;4679;47.966;7.958;2022-09-04T19:03:45;97455.59;;;21.26;53.49
9281;BME280;4679;47.966;7.958;2022-09-04T19:05:51;97462.59;;;21.27;53.51
9281;BME280;4679;47.966;7.958;2022-09-04T19:07:56;97463.69;;;21.26;53.98
9281;BME280;4679;47.966;7.958;2022-09-04T19:10:07;97462.41;;;21.10;54.20
9281;BME280;4679;47.966;7.958;2022-09-04T19:12:11;97467.63;;;21.06;54.36
9281;BME280;4679;47.966;7.958;2022-09-04T19:14:18;97463.63;;;21.03;54.77
9281;BME280;4679;47.966;7.958;2022-09-04T19:16:25;97459.13;;;20.99;54.92
9281;BME280;4679;47.966;7.958;2022-09-04T19:18:39;97466.34;;;20.76;55.12
9281;BME280;4679;47.966;7.958;2022-09-04T19:20:47;97464.03;;;20.69;55.41
9281;BME280;4679;47.966;7.958;2022-09-04T19:22:52;97464.13;;;20.64;55.46
9281;BME280;4679;47.966;7.958;2022-09-04T19:24:58;97460.63;;;20.64;55.89
9281;BME280;4679;47.966;7.958;2022-09-04T19:27:21;97465.56;;;20.62;56.02
9281;BME280;4679;47.966;7.958;2022-09-04T19:29:27;97455.97;;;20.56;56.06
9281;BME280;4679;47.966;7.958;2022-09-04T19:31:36;97457.34;;;20.53;56.29
9281;BME280;4679;47.966;7.958;2022-09-04T19:33:42;97459.97;;;20.45;56.36
9281;BME280;4679;47.966;7.958;2022-09-04T19:35:51;97454.16;;;20.38;56.77
9281;BME280;4679;47.966;7.958;2022-09-04T19:37:58;97453.41;;;20.32;56.91
9281;BME280;4679;47.966;7.958;2022-09-04T19:40:08;97449.13;;;20.31;57.13
9281;BME280;4679;47.966;7.958;2022-09-04T19:42:17;97445.31;;;20.32;57.29